createdAt,value
2017-12-23T00:01:03.392Z,0
2017-12-23T00:02:13.350Z,0
2017-12-23T00:03:23.317Z,0
2017-12-23T00:04:33.022Z,0
2017-12-23T00:05:43.054Z,0
2017-12-23T00:06:53.002Z,0
2017-12-23T00:08:02.761Z,0
2017-12-23T00:09:12.720Z,0
2017-12-23T00:10:22.681Z,0
2017-12-23T00:11:32.120Z,0
2017-12-23T00:12:41.812Z,0
2017-12-23T00:13:51.515Z,0
2017-12-23T00:15:01.232Z,0
2017-12-23T00:16:10.948Z,0
2017-12-23T00:17:20.894Z,0
2017-12-23T00:18:30.851Z,0
2017-12-23T00:19:40.541Z,0
2017-12-23T00:20:50.499Z,0
2017-12-23T00:22:00.452Z,0
2017-12-23T00:23:10.141Z,0
2017-12-23T00:24:20.100Z,0
2017-12-23T00:25:29.799Z,0
2017-12-23T00:26:39.745Z,0
2017-12-23T00:27:49.457Z,0
2017-12-23T00:28:59.414Z,0
2017-12-23T00:30:09.116Z,0
2017-12-23T00:31:19.060Z,0
2017-12-23T00:32:29.005Z,0
2017-12-23T00:33:38.691Z,0
2017-12-23T00:34:48.645Z,0
2017-12-23T00:35:58.336Z,0
2017-12-23T00:37:08.062Z,0
2017-12-23T00:38:18.027Z,0
2017-12-23T00:39:28.001Z,0
2017-12-23T00:40:37.698Z,0
2017-12-23T00:41:47.650Z,0
2017-12-23T00:42:57.348Z,0
2017-12-23T00:44:07.033Z,0
2017-12-23T00:45:16.718Z,0
2017-12-23T00:46:26.734Z,0
2017-12-23T00:47:36.684Z,0
2017-12-23T00:48:46.621Z,0
2017-12-23T00:49:56.564Z,0
2017-12-23T00:51:06.259Z,0
2017-12-23T00:52:16.211Z,0
2017-12-23T00:53:25.903Z,0
2017-12-23T00:54:35.588Z,0
2017-12-23T00:55:45.283Z,0
2017-12-23T00:56:55.229Z,0
2017-12-23T00:58:05.181Z,0
2017-12-23T00:59:14.939Z,0
2017-12-23T01:00:24.633Z,0
2017-12-23T01:01:34.575Z,0
2017-12-23T01:02:44.530Z,0
2017-12-23T01:03:54.502Z,0
2017-12-23T01:05:04.450Z,0
2017-12-23T01:06:14.387Z,0
2017-12-23T01:07:24.340Z,0
2017-12-23T01:08:34.025Z,0
2017-12-23T01:09:43.971Z,0
2017-12-23T01:10:53.662Z,0
2017-12-23T01:12:03.605Z,0
2017-12-23T01:13:13.573Z,0
2017-12-23T01:14:23.272Z,0
2017-12-23T01:15:32.964Z,0
2017-12-23T01:16:42.914Z,0
2017-12-23T01:17:52.348Z,0
2017-12-23T01:19:02.304Z,0
2017-12-23T01:20:11.989Z,0
2017-12-23T01:21:21.941Z,0
2017-12-23T01:22:31.638Z,0
2017-12-23T01:23:41.317Z,0
2017-12-23T01:24:51.001Z,0
2017-12-23T01:26:00.952Z,0
2017-12-23T01:27:10.899Z,0
2017-12-23T01:28:20.865Z,0
2017-12-23T01:29:30.805Z,0
2017-12-23T01:30:40.768Z,0
2017-12-23T01:31:50.764Z,0
2017-12-23T01:33:00.715Z,0
2017-12-23T01:34:10.397Z,0
2017-12-23T01:35:20.349Z,0
2017-12-23T01:36:30.306Z,0
2017-12-23T01:37:40.274Z,0
2017-12-23T01:38:50.217Z,0
2017-12-23T01:40:00.171Z,0
2017-12-23T01:41:10.180Z,0
2017-12-23T01:42:20.133Z,0
2017-12-23T01:43:30.074Z,0
2017-12-23T01:44:39.791Z,0
2017-12-23T01:45:49.530Z,0
2017-12-23T01:46:59.245Z,0
2017-12-23T01:48:09.193Z,0
2017-12-23T01:49:19.138Z,0
2017-12-23T01:50:28.833Z,0
2017-12-23T01:51:38.772Z,0
2017-12-23T01:52:48.466Z,0
2017-12-23T01:53:58.446Z,0
2017-12-23T01:55:08.130Z,0
2017-12-23T01:56:18.071Z,0
2017-12-23T01:57:27.761Z,0
2017-12-23T01:58:37.443Z,0
2017-12-23T01:59:47.143Z,0
2017-12-23T02:00:56.827Z,0
2017-12-23T02:02:06.511Z,0
2017-12-23T02:03:16.465Z,0
2017-12-23T02:04:26.416Z,0
2017-12-23T02:05:36.362Z,0
2017-12-23T02:06:46.305Z,0
2017-12-23T02:07:55.987Z,0
2017-12-23T02:09:05.944Z,0
2017-12-23T02:10:15.637Z,0
2017-12-23T02:11:25.590Z,0
2017-12-23T02:12:35.539Z,0
2017-12-23T02:13:45.483Z,0
2017-12-23T02:14:55.452Z,0
2017-12-23T02:16:05.147Z,0
2017-12-23T02:17:15.092Z,0
2017-12-23T02:18:25.040Z,0
2017-12-23T02:19:34.988Z,0
2017-12-23T02:20:44.212Z,0
2017-12-23T02:21:53.913Z,0
2017-12-23T02:23:03.868Z,0
2017-12-23T02:24:13.828Z,0
2017-12-23T02:25:23.266Z,0
2017-12-23T02:26:33.221Z,0
2017-12-23T02:27:43.236Z,0
2017-12-23T02:28:53.178Z,0
2017-12-23T02:30:03.123Z,0
2017-12-23T02:31:13.078Z,0
2017-12-23T02:32:22.771Z,0
2017-12-23T02:33:32.464Z,0
2017-12-23T02:34:42.207Z,0
2017-12-23T02:35:52.171Z,0
2017-12-23T02:37:01.883Z,0
2017-12-23T02:38:11.581Z,0
2017-12-23T02:39:21.270Z,0
2017-12-23T02:40:31.231Z,0
2017-12-23T02:41:41.196Z,0
2017-12-23T02:42:51.161Z,0
2017-12-23T02:44:01.111Z,0
2017-12-23T02:45:10.551Z,0
2017-12-23T02:46:20.241Z,0
2017-12-23T02:47:30.207Z,0
2017-12-23T02:48:39.912Z,0
2017-12-23T02:49:49.886Z,0
2017-12-23T02:50:59.591Z,0
2017-12-23T02:52:09.554Z,0
2017-12-23T02:53:19.497Z,0
2017-12-23T02:54:29.198Z,0
2017-12-23T02:55:39.162Z,0
2017-12-23T02:56:49.120Z,0
2017-12-23T02:57:59.085Z,0
2017-12-23T02:59:09.040Z,0
2017-12-23T03:00:18.986Z,0
2017-12-23T03:01:28.936Z,0
2017-12-23T03:02:38.623Z,0
2017-12-23T03:03:48.566Z,0
2017-12-23T03:04:58.402Z,0
2017-12-23T03:06:08.349Z,0
2017-12-23T03:07:18.043Z,0
2017-12-23T03:08:27.995Z,0
2017-12-23T03:09:37.943Z,0
2017-12-23T03:10:47.895Z,0
2017-12-23T03:11:57.845Z,0
2017-12-23T03:13:07.787Z,0
2017-12-23T03:14:17.725Z,0
2017-12-23T03:15:27.678Z,0
2017-12-23T03:16:37.646Z,0
2017-12-23T03:17:47.335Z,0
2017-12-23T03:18:57.280Z,0
2017-12-23T03:20:07.236Z,0
2017-12-23T03:21:17.186Z,0
2017-12-23T03:22:27.135Z,0
2017-12-23T03:23:37.082Z,0
2017-12-23T03:24:47.029Z,0
2017-12-23T03:25:56.730Z,0
2017-12-23T03:27:06.181Z,0
2017-12-23T03:28:16.124Z,0
2017-12-23T03:29:26.073Z,0
2017-12-23T03:30:35.768Z,0
2017-12-23T03:31:45.714Z,0
2017-12-23T03:32:55.149Z,0
2017-12-23T03:34:04.842Z,0
2017-12-23T03:35:14.527Z,0
2017-12-23T03:36:24.564Z,0
2017-12-23T03:37:34.264Z,0
2017-12-23T03:38:44.205Z,0
2017-12-23T03:39:54.150Z,0
2017-12-23T03:41:04.117Z,0
2017-12-23T03:42:14.060Z,0
2017-12-23T03:43:23.750Z,0
2017-12-23T03:44:33.691Z,0
2017-12-23T03:45:43.369Z,0
2017-12-23T03:46:53.061Z,0
2017-12-23T03:48:02.754Z,0
2017-12-23T03:49:12.706Z,0
2017-12-23T03:50:22.653Z,0
2017-12-23T03:51:32.610Z,0
2017-12-23T03:52:42.566Z,0
2017-12-23T03:53:52.011Z,0
2017-12-23T03:55:01.716Z,0
2017-12-23T03:56:11.406Z,0
2017-12-23T03:57:21.349Z,0
2017-12-23T03:58:31.292Z,0
2017-12-23T03:59:41.234Z,0
2017-12-23T04:00:51.173Z,0
2017-12-23T04:02:01.114Z,0
2017-12-23T04:03:11.059Z,0
2017-12-23T04:04:21.012Z,0
2017-12-23T04:05:30.702Z,0
2017-12-23T04:06:40.656Z,0
2017-12-23T04:07:50.351Z,0
2017-12-23T04:09:00.360Z,0
2017-12-23T04:10:10.379Z,0
2017-12-23T04:11:20.072Z,0
2017-12-23T04:12:30.012Z,0
2017-12-23T04:13:40.039Z,0
2017-12-23T04:14:49.985Z,0
2017-12-23T04:15:59.665Z,0
2017-12-23T04:17:09.624Z,0
2017-12-23T04:18:19.308Z,0
2017-12-23T04:19:29.249Z,0
2017-12-23T04:20:38.679Z,0
2017-12-23T04:21:48.378Z,0
2017-12-23T04:22:58.316Z,0
2017-12-23T04:24:08.007Z,0
2017-12-23T04:25:17.962Z,0
2017-12-23T04:26:27.909Z,0
2017-12-23T04:27:37.608Z,0
2017-12-23T04:28:47.555Z,0
2017-12-23T04:29:57.495Z,0
2017-12-23T04:31:07.442Z,0
2017-12-23T04:32:17.386Z,0
2017-12-23T04:33:27.330Z,0
2017-12-23T04:34:37.284Z,0
2017-12-23T04:35:47.246Z,0
2017-12-23T04:36:57.213Z,0
2017-12-23T04:38:07.154Z,0
2017-12-23T04:39:16.857Z,0
2017-12-23T04:40:26.556Z,0
2017-12-23T04:41:36.252Z,0
2017-12-23T04:42:46.197Z,0
2017-12-23T04:43:56.144Z,0
2017-12-23T04:45:05.843Z,0
2017-12-23T04:46:15.787Z,0
2017-12-23T04:47:25.734Z,0
2017-12-23T04:48:35.673Z,0
2017-12-23T04:49:45.876Z,0
2017-12-23T04:50:55.821Z,0
2017-12-23T04:52:05.510Z,0
2017-12-23T04:53:15.451Z,0
2017-12-23T04:54:25.403Z,0
2017-12-23T04:55:35.099Z,0
2017-12-23T04:56:44.797Z,0
2017-12-23T04:57:54.237Z,0
2017-12-23T04:59:04.190Z,0
2017-12-23T05:00:13.879Z,0
2017-12-23T05:01:23.816Z,0
2017-12-23T05:02:33.514Z,0
2017-12-23T05:03:43.195Z,0
2017-12-23T05:04:53.138Z,0
2017-12-23T05:06:03.085Z,0
2017-12-23T05:07:13.030Z,0
2017-12-23T05:08:22.974Z,0
2017-12-23T05:09:32.425Z,0
2017-12-23T05:10:42.384Z,0
2017-12-23T05:11:52.321Z,0
2017-12-23T05:13:02.265Z,0
2017-12-23T05:14:11.940Z,0
2017-12-23T05:15:21.636Z,0
2017-12-23T05:16:31.577Z,0
2017-12-23T05:17:41.001Z,0
2017-12-23T05:18:50.950Z,0
2017-12-23T05:20:00.887Z,0
2017-12-23T05:21:10.895Z,0
2017-12-23T05:22:20.848Z,0
2017-12-23T05:23:30.533Z,0
2017-12-23T05:24:40.478Z,0
2017-12-23T05:25:50.163Z,0
2017-12-23T05:26:59.852Z,0
2017-12-23T05:28:09.807Z,0
2017-12-23T05:29:19.765Z,0
2017-12-23T05:30:29.456Z,0
2017-12-23T05:31:39.153Z,0
2017-12-23T05:32:48.840Z,0
2017-12-23T05:33:58.524Z,0
2017-12-23T05:35:08.535Z,0
2017-12-23T05:36:18.497Z,0
2017-12-23T05:37:28.211Z,0
2017-12-23T05:38:38.171Z,0
2017-12-23T05:39:48.138Z,0
2017-12-23T05:40:58.097Z,0
2017-12-23T05:42:07.775Z,0
2017-12-23T05:43:17.467Z,0
2017-12-23T05:44:27.409Z,0
2017-12-23T05:45:37.377Z,0
2017-12-23T05:46:47.340Z,0
2017-12-23T05:47:57.288Z,0
2017-12-23T05:49:07.233Z,0
2017-12-23T05:50:17.175Z,0
2017-12-23T05:51:26.613Z,0
2017-12-23T05:52:36.043Z,0
2017-12-23T05:53:46.059Z,0
2017-12-23T05:54:55.992Z,0
2017-12-23T05:56:05.931Z,0
2017-12-23T05:57:15.891Z,0
2017-12-23T05:58:25.320Z,0
2017-12-23T05:59:35.271Z,0
2017-12-23T06:00:45.229Z,0
2017-12-23T06:01:55.173Z,0
2017-12-23T06:03:05.132Z,0
2017-12-23T06:04:15.078Z,0
2017-12-23T06:05:25.043Z,0
2017-12-23T06:06:34.986Z,0
2017-12-23T06:07:44.944Z,0
2017-12-23T06:08:54.890Z,0
2017-12-23T06:10:04.838Z,0
2017-12-23T06:11:14.778Z,0
2017-12-23T06:12:24.729Z,0
2017-12-23T06:13:34.668Z,0
2017-12-23T06:14:44.367Z,0
2017-12-23T06:15:54.314Z,0
2017-12-23T06:17:04.009Z,0
2017-12-23T06:18:13.965Z,0
2017-12-23T06:19:23.908Z,0
2017-12-23T06:20:33.858Z,0
2017-12-23T06:21:43.804Z,0
2017-12-23T06:22:53.501Z,0
2017-12-23T06:24:03.432Z,0
2017-12-23T06:25:13.376Z,0
2017-12-23T06:26:23.077Z,0
2017-12-23T06:27:33.026Z,0
2017-12-23T06:28:42.448Z,0
2017-12-23T06:29:52.388Z,0
2017-12-23T06:31:02.336Z,0
2017-12-23T06:32:12.284Z,0
2017-12-23T06:33:22.228Z,0
2017-12-23T06:34:32.171Z,0
2017-12-23T06:35:42.124Z,0
2017-12-23T06:36:52.069Z,0
2017-12-23T06:38:01.770Z,0
2017-12-23T06:39:11.709Z,0
2017-12-23T06:40:21.660Z,0
2017-12-23T06:41:31.358Z,0
2017-12-23T06:42:41.319Z,0
2017-12-23T06:43:51.263Z,0
2017-12-23T06:45:01.281Z,0
2017-12-23T06:46:11.244Z,0
2017-12-23T06:47:21.194Z,0
2017-12-23T06:48:31.134Z,0
2017-12-23T06:49:40.817Z,0
2017-12-23T06:50:50.257Z,0
2017-12-23T06:52:00.454Z,0
2017-12-23T06:53:10.144Z,0
2017-12-23T06:54:20.104Z,0
2017-12-23T06:55:30.050Z,0
2017-12-23T06:56:40.014Z,0
2017-12-23T06:57:49.966Z,0
2017-12-23T06:58:59.402Z,0
2017-12-23T07:00:09.088Z,0
2017-12-23T07:01:18.774Z,0
2017-12-23T07:02:28.509Z,0
2017-12-23T07:03:38.464Z,0
2017-12-23T07:04:48.417Z,0
2017-12-23T07:05:58.105Z,0
2017-12-23T07:07:08.060Z,0
2017-12-23T07:08:17.749Z,0
2017-12-23T07:09:27.693Z,0
2017-12-23T07:10:37.641Z,0
2017-12-23T07:11:47.589Z,0
2017-12-23T07:12:57.532Z,0
2017-12-23T07:14:07.223Z,0
2017-12-23T07:15:17.174Z,0
2017-12-23T07:16:27.122Z,0
2017-12-23T07:17:37.067Z,0
2017-12-23T07:18:47.027Z,0
2017-12-23T07:19:57.000Z,0
2017-12-23T07:21:06.696Z,0
2017-12-23T07:22:16.141Z,0
2017-12-23T07:23:26.091Z,0
2017-12-23T07:24:36.037Z,0
2017-12-23T07:25:45.983Z,0
2017-12-23T07:26:55.677Z,5
2017-12-23T07:28:05.632Z,5
2017-12-23T07:29:15.083Z,5
2017-12-23T07:30:25.039Z,5
2017-12-23T07:31:34.984Z,5
2017-12-23T07:32:44.933Z,5
2017-12-23T07:33:54.882Z,5
2017-12-23T07:35:04.065Z,5
2017-12-23T07:36:14.003Z,5
2017-12-23T07:37:23.962Z,5
2017-12-23T07:38:33.909Z,10
2017-12-23T07:39:43.926Z,10
2017-12-23T07:40:53.916Z,10
2017-12-23T07:42:03.347Z,10
2017-12-23T07:43:13.294Z,10
2017-12-23T07:44:22.982Z,10
2017-12-23T07:45:32.688Z,15
2017-12-23T07:46:42.633Z,15
2017-12-23T07:47:52.327Z,15
2017-12-23T07:49:02.271Z,15
2017-12-23T07:50:11.977Z,15
2017-12-23T07:51:21.926Z,15
2017-12-23T07:52:31.935Z,15
2017-12-23T07:53:41.894Z,20
2017-12-23T07:54:51.871Z,20
2017-12-23T07:56:01.574Z,15
2017-12-23T07:57:11.529Z,20
2017-12-23T07:58:21.488Z,15
2017-12-23T07:59:31.439Z,20
2017-12-23T08:00:41.130Z,15
2017-12-23T08:01:51.083Z,15
2017-12-23T08:03:01.032Z,20
2017-12-23T08:04:10.992Z,20
2017-12-23T08:05:20.944Z,20
2017-12-23T08:06:30.919Z,20
2017-12-23T08:07:40.871Z,20
2017-12-23T08:08:50.723Z,20
2017-12-23T08:10:00.672Z,20
2017-12-23T08:11:10.374Z,20
2017-12-23T08:12:20.378Z,20
2017-12-23T08:13:30.081Z,20
2017-12-23T08:14:39.827Z,20
2017-12-23T08:15:49.784Z,20
2017-12-23T08:16:59.739Z,20
2017-12-23T08:18:09.433Z,25
2017-12-23T08:19:19.381Z,25
2017-12-23T08:20:29.337Z,25
2017-12-23T08:21:39.037Z,25
2017-12-23T08:22:48.758Z,25
2017-12-23T08:23:58.700Z,25
2017-12-23T08:25:08.655Z,25
2017-12-23T08:26:18.626Z,25
2017-12-23T08:27:28.318Z,25
2017-12-23T08:28:38.278Z,25
2017-12-23T08:29:47.989Z,25
2017-12-23T08:30:57.936Z,25
2017-12-23T08:32:07.890Z,25
2017-12-23T08:33:17.840Z,25
2017-12-23T08:34:27.797Z,20
2017-12-23T08:35:37.764Z,25
2017-12-23T08:36:47.472Z,25
2017-12-23T08:37:57.171Z,25
2017-12-23T08:39:06.860Z,30
2017-12-23T08:40:16.813Z,35
2017-12-23T08:41:26.756Z,35
2017-12-23T08:42:36.709Z,35
2017-12-23T08:43:46.403Z,40
2017-12-23T08:44:56.124Z,40
2017-12-23T08:46:06.078Z,40
2017-12-23T08:47:15.525Z,35
2017-12-23T08:48:25.216Z,35
2017-12-23T08:49:35.177Z,35
2017-12-23T08:50:44.899Z,35
2017-12-23T08:51:54.606Z,35
2017-12-23T08:53:04.569Z,35
2017-12-23T08:54:14.524Z,30
2017-12-23T08:55:24.476Z,30
2017-12-23T08:56:34.438Z,35
2017-12-23T08:57:44.419Z,35
2017-12-23T08:58:54.373Z,35
2017-12-23T09:00:04.334Z,30
2017-12-23T09:01:14.279Z,35
2017-12-23T09:02:24.232Z,35
2017-12-23T09:03:33.929Z,30
2017-12-23T09:04:43.889Z,35
2017-12-23T09:05:53.839Z,30
2017-12-23T09:07:03.781Z,25
2017-12-23T09:08:13.744Z,25
2017-12-23T09:09:23.692Z,25
2017-12-23T09:10:33.641Z,25
2017-12-23T09:11:43.601Z,25
2017-12-23T09:12:53.567Z,25
2017-12-23T09:14:03.519Z,30
2017-12-23T09:15:13.478Z,35
2017-12-23T09:16:23.451Z,35
2017-12-23T09:17:33.663Z,35
2017-12-23T09:18:43.611Z,40
2017-12-23T09:19:53.309Z,40
2017-12-23T09:21:03.024Z,40
2017-12-23T09:22:12.718Z,40
2017-12-23T09:23:22.420Z,45
2017-12-23T09:24:32.367Z,45
2017-12-23T09:25:42.337Z,45
2017-12-23T09:26:52.041Z,45
2017-12-23T09:28:02.002Z,40
2017-12-23T09:29:11.956Z,40
2017-12-23T09:30:21.645Z,40
2017-12-23T09:31:31.336Z,40
2017-12-23T09:32:41.293Z,40
2017-12-23T09:33:50.734Z,40
2017-12-23T09:35:00.718Z,40
2017-12-23T09:36:10.428Z,40
2017-12-23T09:37:20.134Z,40
2017-12-23T09:38:30.101Z,40
2017-12-23T09:39:40.073Z,45
2017-12-23T09:40:49.521Z,40
2017-12-23T09:41:59.247Z,40
2017-12-23T09:43:08.950Z,45
2017-12-23T09:44:18.905Z,40
2017-12-23T09:45:28.863Z,40
2017-12-23T09:46:38.818Z,40
2017-12-23T09:47:48.779Z,45
2017-12-23T09:48:58.736Z,45
2017-12-23T09:50:08.442Z,45
2017-12-23T09:51:18.127Z,40
2017-12-23T09:52:28.110Z,45
2017-12-23T09:53:37.820Z,45
2017-12-23T09:54:47.778Z,40
2017-12-23T09:55:57.204Z,40
2017-12-23T09:57:07.147Z,40
2017-12-23T09:58:16.903Z,55
2017-12-23T09:59:26.599Z,70
2017-12-23T10:00:36.302Z,65
2017-12-23T10:01:46.259Z,70
2017-12-23T10:02:55.699Z,70
2017-12-23T10:04:05.148Z,65
2017-12-23T10:05:15.106Z,65
2017-12-23T10:06:24.802Z,70
2017-12-23T10:07:34.757Z,65
2017-12-23T10:08:44.727Z,65
2017-12-23T10:09:54.677Z,60
2017-12-23T10:11:04.623Z,60
2017-12-23T10:12:14.568Z,55
2017-12-23T10:13:23.740Z,50
2017-12-23T10:14:33.695Z,50
2017-12-23T10:15:43.388Z,45
2017-12-23T10:16:53.342Z,50
2017-12-23T10:18:03.043Z,45
2017-12-23T10:19:13.000Z,45
2017-12-23T10:20:22.950Z,40
2017-12-23T10:21:32.918Z,40
2017-12-23T10:22:42.872Z,40
2017-12-23T10:23:52.829Z,35
2017-12-23T10:25:02.795Z,35
2017-12-23T10:26:12.753Z,35
2017-12-23T10:27:22.463Z,35
2017-12-23T10:28:32.419Z,35
2017-12-23T10:29:42.379Z,35
2017-12-23T10:30:52.342Z,35
2017-12-23T10:32:02.290Z,40
2017-12-23T10:33:11.992Z,50
2017-12-23T10:34:21.960Z,60
2017-12-23T10:35:31.915Z,70
2017-12-23T10:36:41.634Z,70
2017-12-23T10:37:51.576Z,70
2017-12-23T10:39:01.533Z,75
2017-12-23T10:40:11.291Z,80
2017-12-23T10:41:21.261Z,80
2017-12-23T10:42:30.703Z,90
2017-12-23T10:43:40.649Z,85
2017-12-23T10:44:50.610Z,90
2017-12-23T10:46:00.304Z,85
2017-12-23T10:47:10.012Z,70
2017-12-23T10:48:19.968Z,75
2017-12-23T10:49:29.920Z,65
2017-12-23T10:50:39.941Z,75
2017-12-23T10:51:49.905Z,75
2017-12-23T10:52:59.602Z,80
2017-12-23T10:54:09.559Z,70
2017-12-23T10:55:19.268Z,70
2017-12-23T10:56:29.224Z,75
2017-12-23T10:57:38.926Z,80
2017-12-23T10:58:48.642Z,75
2017-12-23T10:59:58.347Z,85
2017-12-23T11:01:08.298Z,80
2017-12-23T11:02:17.998Z,75
2017-12-23T11:03:28.008Z,70
2017-12-23T11:04:37.972Z,70
2017-12-23T11:05:47.659Z,80
2017-12-23T11:06:57.612Z,95
2017-12-23T11:08:07.577Z,110
2017-12-23T11:09:17.559Z,105
2017-12-23T11:10:27.526Z,105
2017-12-23T11:11:37.512Z,120
2017-12-23T11:12:47.464Z,110
2017-12-23T11:13:57.424Z,95
2017-12-23T11:15:07.391Z,90
2017-12-23T11:16:17.359Z,95
2017-12-23T11:17:27.119Z,90
2017-12-23T11:18:36.849Z,105
2017-12-23T11:19:46.809Z,110
2017-12-23T11:20:55.989Z,110
2017-12-23T11:22:05.704Z,120
2017-12-23T11:23:15.389Z,135
2017-12-23T11:24:25.355Z,120
2017-12-23T11:25:35.321Z,130
2017-12-23T11:26:45.032Z,120
2017-12-23T11:27:54.720Z,140
2017-12-23T11:29:04.682Z,145
2017-12-23T11:30:14.654Z,150
2017-12-23T11:31:24.612Z,155
2017-12-23T11:32:34.569Z,140
2017-12-23T11:33:44.527Z,140
2017-12-23T11:34:54.241Z,160
2017-12-23T11:36:04.265Z,165
2017-12-23T11:37:14.227Z,175
2017-12-23T11:38:24.188Z,175
2017-12-23T11:39:34.159Z,175
2017-12-23T11:40:44.112Z,165
2017-12-23T11:41:54.065Z,150
2017-12-23T11:43:04.017Z,155
2017-12-23T11:44:13.218Z,130
2017-12-23T11:45:23.205Z,115
2017-12-23T11:46:33.156Z,115
2017-12-23T11:47:43.117Z,135
2017-12-23T11:48:53.101Z,120
2017-12-23T11:50:03.062Z,105
2017-12-23T11:51:12.806Z,90
2017-12-23T11:52:22.762Z,105
2017-12-23T11:53:32.742Z,95
2017-12-23T11:54:42.711Z,100
2017-12-23T11:55:52.659Z,85
2017-12-23T11:57:02.629Z,80
2017-12-23T11:58:12.581Z,65
2017-12-23T11:59:22.570Z,65
2017-12-23T12:00:32.521Z,60
2017-12-23T12:01:42.246Z,80
2017-12-23T12:02:51.954Z,90
2017-12-23T12:04:01.902Z,95
2017-12-23T12:05:11.604Z,90
2017-12-23T12:06:21.565Z,100
2017-12-23T12:07:31.539Z,130
2017-12-23T12:08:41.490Z,120
2017-12-23T12:09:51.443Z,110
2017-12-23T12:11:01.415Z,115
2017-12-23T12:12:11.398Z,105
2017-12-23T12:13:21.110Z,105
2017-12-23T12:14:30.806Z,115
2017-12-23T12:15:40.553Z,135
2017-12-23T12:16:50.506Z,155
2017-12-23T12:18:00.205Z,140
2017-12-23T12:19:10.182Z,140
2017-12-23T12:20:20.135Z,155
2017-12-23T12:21:30.100Z,140
2017-12-23T12:22:39.787Z,145
2017-12-23T12:23:49.496Z,115
2017-12-23T12:24:59.224Z,125
2017-12-23T12:26:09.199Z,105
2017-12-23T12:27:19.205Z,85
2017-12-23T12:28:28.922Z,75
2017-12-23T12:29:38.887Z,70
2017-12-23T12:30:48.618Z,65
2017-12-23T12:31:58.578Z,55
2017-12-23T12:33:08.543Z,55
2017-12-23T12:34:18.513Z,55
2017-12-23T12:35:28.495Z,50
2017-12-23T12:36:38.457Z,55
2017-12-23T12:37:48.416Z,65
2017-12-23T12:38:57.856Z,45
2017-12-23T12:40:07.544Z,55
2017-12-23T12:41:17.511Z,50
2017-12-23T12:42:27.487Z,45
2017-12-23T12:43:37.457Z,45
2017-12-23T12:44:47.438Z,50
2017-12-23T12:45:57.399Z,45
2017-12-23T12:47:07.351Z,60
2017-12-23T12:48:17.053Z,60
2017-12-23T12:49:27.014Z,65
2017-12-23T12:50:36.972Z,55
2017-12-23T12:51:46.936Z,65
2017-12-23T12:52:56.916Z,60
2017-12-23T12:54:06.625Z,70
2017-12-23T12:55:16.684Z,75
2017-12-23T12:56:26.662Z,85
2017-12-23T12:57:36.630Z,90
2017-12-23T12:58:46.344Z,75
2017-12-23T12:59:55.798Z,85
2017-12-23T13:01:05.796Z,75
2017-12-23T13:02:15.762Z,60
2017-12-23T13:03:25.725Z,60
2017-12-23T13:04:35.423Z,55
2017-12-23T13:05:45.112Z,45
2017-12-23T13:06:55.074Z,50
2017-12-23T13:08:05.035Z,40
2017-12-23T13:09:14.728Z,45
2017-12-23T13:10:24.706Z,50
2017-12-23T13:11:34.664Z,45
2017-12-23T13:12:44.379Z,45
2017-12-23T13:13:54.348Z,40
2017-12-23T13:15:04.350Z,35
2017-12-23T13:16:13.839Z,35
2017-12-23T13:17:23.786Z,35
2017-12-23T13:18:33.761Z,35
2017-12-23T13:19:43.477Z,45
2017-12-23T13:20:53.425Z,45
2017-12-23T13:22:03.124Z,40
2017-12-23T13:23:12.557Z,40
2017-12-23T13:24:22.537Z,40
2017-12-23T13:25:32.511Z,40
2017-12-23T13:26:42.480Z,40
2017-12-23T13:27:52.426Z,40
2017-12-23T13:29:02.638Z,40
2017-12-23T13:30:12.337Z,40
2017-12-23T13:31:21.779Z,40
2017-12-23T13:32:31.493Z,45
2017-12-23T13:33:41.209Z,40
2017-12-23T13:34:51.189Z,40
2017-12-23T13:36:01.157Z,40
2017-12-23T13:37:11.127Z,35
2017-12-23T13:38:21.084Z,35
2017-12-23T13:39:31.038Z,35
2017-12-23T13:40:40.737Z,40
2017-12-23T13:41:50.697Z,40
2017-12-23T13:43:00.388Z,40
2017-12-23T13:44:10.365Z,40
2017-12-23T13:45:19.811Z,45
2017-12-23T13:46:29.790Z,45
2017-12-23T13:47:39.476Z,55
2017-12-23T13:48:49.438Z,50
2017-12-23T13:49:59.193Z,50
2017-12-23T13:51:08.900Z,40
2017-12-23T13:52:18.865Z,40
2017-12-23T13:53:28.553Z,45
2017-12-23T13:54:38.329Z,45
2017-12-23T13:55:48.285Z,40
2017-12-23T13:56:58.241Z,35
2017-12-23T13:58:07.710Z,35
2017-12-23T13:59:17.673Z,35
2017-12-23T14:00:27.361Z,35
2017-12-23T14:01:37.318Z,35
2017-12-23T14:02:47.032Z,35
2017-12-23T14:03:56.753Z,35
2017-12-23T14:05:06.714Z,40
2017-12-23T14:06:16.672Z,30
2017-12-23T14:07:26.375Z,30
2017-12-23T14:08:36.418Z,30
2017-12-23T14:09:46.370Z,25
2017-12-23T14:10:56.057Z,25
2017-12-23T14:12:05.767Z,25
2017-12-23T14:13:15.735Z,25
2017-12-23T14:14:25.488Z,25
2017-12-23T14:15:34.931Z,20
2017-12-23T14:16:44.129Z,20
2017-12-23T14:17:54.130Z,15
2017-12-23T14:19:04.329Z,20
2017-12-23T14:20:14.316Z,15
2017-12-23T14:21:24.018Z,15
2017-12-23T14:22:33.714Z,15
2017-12-23T14:23:43.404Z,15
2017-12-23T14:24:53.148Z,15
2017-12-23T14:26:03.173Z,15
2017-12-23T14:27:13.147Z,15
2017-12-23T14:28:22.861Z,10
2017-12-23T14:29:32.843Z,10
2017-12-23T14:30:42.797Z,10
2017-12-23T14:31:52.752Z,10
2017-12-23T14:33:02.448Z,10
2017-12-23T14:34:12.152Z,5
2017-12-23T14:35:21.852Z,5
2017-12-23T14:36:31.808Z,5
2017-12-23T14:37:41.511Z,5
2017-12-23T14:38:51.489Z,5
2017-12-23T14:40:01.469Z,5
2017-12-23T14:41:11.438Z,5
2017-12-23T14:42:21.138Z,5
2017-12-23T14:43:31.085Z,5
2017-12-23T14:44:40.793Z,5
2017-12-23T14:45:50.765Z,5
2017-12-23T14:47:00.738Z,0
2017-12-23T14:48:10.692Z,0
2017-12-23T14:49:20.652Z,0
2017-12-23T14:50:30.635Z,0
2017-12-23T14:51:40.334Z,0
2017-12-23T14:52:50.277Z,0
2017-12-23T14:53:59.995Z,0
2017-12-23T14:55:09.952Z,0
2017-12-23T14:56:19.686Z,0
2017-12-23T14:57:29.639Z,0
2017-12-23T14:58:39.605Z,0
2017-12-23T14:59:49.586Z,0
2017-12-23T15:00:59.581Z,0
2017-12-23T15:02:09.545Z,0
2017-12-23T15:03:19.312Z,0
2017-12-23T15:04:29.031Z,0
2017-12-23T15:05:39.240Z,0
2017-12-23T15:06:49.212Z,0
2017-12-23T15:07:58.921Z,0
2017-12-23T15:09:08.895Z,0
2017-12-23T15:10:18.856Z,0
2017-12-23T15:11:28.812Z,0
2017-12-23T15:12:38.766Z,0
2017-12-23T15:13:48.729Z,0
2017-12-23T15:14:58.693Z,0
2017-12-23T15:16:08.396Z,0
2017-12-23T15:17:17.840Z,0
2017-12-23T15:18:27.280Z,0
2017-12-23T15:19:37.297Z,0
2017-12-23T15:20:47.272Z,0
2017-12-23T15:21:56.987Z,0
2017-12-23T15:23:06.949Z,0
2017-12-23T15:24:16.931Z,0
2017-12-23T15:25:26.391Z,0
2017-12-23T15:26:36.357Z,0
2017-12-23T15:27:46.321Z,0
2017-12-23T15:28:56.287Z,0
2017-12-23T15:30:05.976Z,0
2017-12-23T15:31:15.934Z,0
2017-12-23T15:32:25.890Z,0
2017-12-23T15:33:35.595Z,0
2017-12-23T15:34:45.617Z,0
2017-12-23T15:35:55.586Z,0
2017-12-23T15:37:05.539Z,0
2017-12-23T15:38:15.497Z,0
2017-12-23T15:39:25.456Z,0
2017-12-23T15:40:35.435Z,0
2017-12-23T15:41:45.210Z,0
2017-12-23T15:42:55.180Z,0
2017-12-23T15:44:04.881Z,0
2017-12-23T15:45:14.589Z,0
2017-12-23T15:46:24.596Z,0
2017-12-23T15:47:34.298Z,0
2017-12-23T15:48:43.751Z,0
2017-12-23T15:49:53.717Z,0
2017-12-23T15:51:03.679Z,0
2017-12-23T15:52:13.386Z,0
2017-12-23T15:53:23.360Z,0
2017-12-23T15:54:33.331Z,0
2017-12-23T15:55:43.026Z,0
2017-12-23T15:56:52.972Z,0
2017-12-23T15:58:02.941Z,0
2017-12-23T15:59:12.891Z,0
2017-12-23T16:00:22.918Z,0
2017-12-23T16:01:32.898Z,0
2017-12-23T16:02:42.676Z,0
2017-12-23T16:03:52.644Z,0
2017-12-23T16:05:02.605Z,0
2017-12-23T16:06:12.558Z,0
2017-12-23T16:07:22.247Z,0
2017-12-23T16:08:31.684Z,0
2017-12-23T16:09:41.127Z,0
2017-12-23T16:10:51.097Z,0
2017-12-23T16:12:01.047Z,0
2017-12-23T16:13:10.488Z,0
2017-12-23T16:14:20.187Z,0
2017-12-23T16:15:30.157Z,0
2017-12-23T16:16:40.180Z,0
2017-12-23T16:17:50.204Z,0
2017-12-23T16:19:00.184Z,0
2017-12-23T16:20:10.231Z,0
2017-12-23T16:21:20.216Z,0
2017-12-23T16:22:30.172Z,0
2017-12-23T16:23:39.886Z,0
2017-12-23T16:24:49.618Z,0
2017-12-23T16:25:59.584Z,0
2017-12-23T16:27:09.280Z,0
2017-12-23T16:28:19.260Z,0
2017-12-23T16:29:29.215Z,0
2017-12-23T16:30:39.169Z,0
2017-12-23T16:31:48.862Z,0
2017-12-23T16:32:58.558Z,0
2017-12-23T16:34:08.327Z,0
2017-12-23T16:35:18.052Z,0
2017-12-23T16:36:28.023Z,0
2017-12-23T16:37:37.727Z,0
2017-12-23T16:38:47.420Z,0
2017-12-23T16:39:57.374Z,0
2017-12-23T16:41:07.363Z,0
2017-12-23T16:42:17.077Z,0
2017-12-23T16:43:27.080Z,0
2017-12-23T16:44:37.024Z,0
2017-12-23T16:45:46.985Z,0
2017-12-23T16:46:56.952Z,0
2017-12-23T16:48:06.654Z,0
2017-12-23T16:49:16.586Z,0
2017-12-23T16:50:26.562Z,0
2017-12-23T16:51:36.521Z,0
2017-12-23T16:52:46.469Z,0
2017-12-23T16:53:56.423Z,0
2017-12-23T16:55:06.130Z,0
2017-12-23T16:56:15.843Z,0